Time;durP1;ratioP1;P1;durP2;ratioP2;P2;SDS_P1;SDS_P2;PMS_P1;PMS_P2;Temp;Humidity;BMP_temperature;BMP_pressure;BME280_temperature;BME280_humidity;BME280_pressure;Samples;Min_cycle;Max_cycle;Signal;HPM_P1;HPM_P2
2023/09/19 00:00:25;;;;;;;9.95;1.45;;;13.80;99.90;;;;;;4885419;29;20029;-78
2023/09/19 00:02:59;;;;;;;9.73;1.42;;;13.80;99.90;;;;;;4887266;29;20454;-77
2023/09/19 00:05:29;;;;;;;6.60;1.05;;;13.80;99.90;;;;;;4885641;29;20116;-78
2023/09/19 00:08:00;;;;;;;7.90;1.52;;;13.70;99.90;;;;;;4885949;29;20102;-77
2023/09/19 00:10:30;;;;;;;9.52;1.20;;;13.70;99.90;;;;;;4868106;29;20041;-77
2023/09/19 00:13:00;;;;;;;10.07;1.40;;;13.60;99.90;;;;;;4869289;29;20063;-77
2023/09/19 00:15:28;;;;;;;15.02;1.73;;;13.60;99.90;;;;;;4887878;29;20452;-78
2023/09/19 00:17:55;;;;;;;10.43;1.65;;;13.60;99.90;;;;;;4879695;29;20045;-78
2023/09/19 00:20:22;;;;;;;9.48;1.83;;;13.50;99.90;;;;;;4885561;29;20032;-77
2023/09/19 00:22:51;;;;;;;7.28;1.33;;;13.50;99.90;;;;;;4887479;29;20037;-77
2023/09/19 00:25:18;;;;;;;12.60;1.50;;;13.40;99.90;;;;;;4881587;29;20033;-78
2023/09/19 00:27:44;;;;;;;6.72;1.30;;;13.40;99.90;;;;;;4884827;29;20096;-78
2023/09/19 00:30:15;;;;;;;9.93;1.58;;;13.30;99.90;;;;;;4868384;29;20397;-78
2023/09/19 00:32:42;;;;;;;8.38;1.70;;;13.30;99.90;;;;;;4886951;29;20439;-79
2023/09/19 00:35:10;;;;;;;7.57;1.65;;;13.30;99.90;;;;;;4886657;29;20047;-78
2023/09/19 00:37:37;;;;;;;9.60;1.65;;;13.30;99.90;;;;;;4883416;29;20048;-77
2023/09/19 00:40:15;;;;;;;8.90;1.63;;;13.20;99.90;;;;;;4881057;29;20480;-78
2023/09/19 00:42:41;;;;;;;10.18;1.63;;;13.20;99.90;;;;;;4881208;29;20138;-77
2023/09/19 00:45:10;;;;;;;9.77;1.45;;;13.30;99.90;;;;;;4878515;29;20032;-78
2023/09/19 00:47:37;;;;;;;11.88;1.75;;;13.30;99.90;;;;;;4872620;29;20444;-78
2023/09/19 00:50:07;;;;;;;8.70;1.42;;;13.30;99.90;;;;;;4883247;29;20107;-77
2023/09/19 00:52:33;;;;;;;13.00;2.08;;;13.30;99.90;;;;;;4884224;29;20402;-78
2023/09/19 00:55:00;;;;;;;8.27;1.42;;;13.30;99.90;;;;;;4881441;29;20029;-78
2023/09/19 00:57:25;;;;;;;11.13;2.03;;;13.30;99.90;;;;;;4885617;29;20036;-78
2023/09/19 00:59:54;;;;;;;12.25;1.60;;;13.30;99.90;;;;;;4881327;29;20036;-78
2023/09/19 01:02:21;;;;;;;12.32;1.83;;;13.30;99.90;;;;;;4879695;29;20082;-78
2023/09/19 01:04:47;;;;;;;10.20;1.95;;;13.30;99.90;;;;;;4877644;29;20091;-78
2023/09/19 01:07:14;;;;;;;12.63;2.42;;;13.30;99.90;;;;;;4877869;29;20501;-78
2023/09/19 01:09:41;;;;;;;19.25;2.10;;;13.40;99.90;;;;;;4884688;29;20478;-78
2023/09/19 01:12:08;;;;;;;13.82;2.05;;;13.40;99.90;;;;;;4886091;29;20450;-77
2023/09/19 01:14:37;;;;;;;15.00;2.08;;;13.40;99.90;;;;;;4882980;29;20063;-77
2023/09/19 01:17:13;;;;;;;14.80;2.53;;;13.40;99.90;;;;;;4883882;29;20036;-77
2023/09/19 01:20:11;;;;;;;21.40;2.10;;;13.40;99.90;;;;;;4876474;29;20205;-77
2023/09/19 01:22:54;;;;;;;12.85;2.47;;;13.40;99.90;;;;;;4882730;29;20043;-78
2023/09/19 01:25:20;;;;;;;13.38;1.70;;;13.40;99.90;;;;;;4873459;29;20048;-78
2023/09/19 01:28:10;;;;;;;13.00;2.10;;;13.40;99.90;;;;;;4878461;29;20405;-77
2023/09/19 01:30:43;;;;;;;11.73;2.43;;;13.40;99.90;;;;;;4884111;29;20329;-78
2023/09/19 01:33:10;;;;;;;11.60;1.85;;;13.40;99.90;;;;;;4876624;29;20044;-78
2023/09/19 01:35:38;;;;;;;14.50;2.55;;;13.50;99.90;;;;;;4877065;29;20352;-78
2023/09/19 01:38:06;;;;;;;13.88;2.13;;;13.50;99.90;;;;;;4878845;29;20468;-77
2023/09/19 01:40:40;;;;;;;13.55;2.20;;;13.60;99.90;;;;;;4881723;29;20024;-78
2023/09/19 01:43:20;;;;;;;11.35;1.77;;;13.60;99.90;;;;;;4882031;29;20198;-77
2023/09/19 01:46:04;;;;;;;10.10;1.83;;;13.70;99.90;;;;;;4880022;29;20099;-77
2023/09/19 01:48:55;;;;;;;18.33;2.40;;;13.80;99.90;;;;;;4879616;29;20059;-78
2023/09/19 01:51:34;;;;;;;11.18;2.33;;;13.90;99.90;;;;;;4873791;29;20032;-77
2023/09/19 01:54:09;;;;;;;17.27;2.22;;;13.90;99.90;;;;;;4871748;29;20077;-77
2023/09/19 01:57:03;;;;;;;11.15;2.28;;;13.90;99.90;;;;;;4874250;29;20119;-78
2023/09/19 01:59:45;;;;;;;12.32;1.70;;;13.80;99.90;;;;;;4871212;29;20040;-77
2023/09/19 02:02:12;;;;;;;10.65;2.28;;;13.70;99.90;;;;;;4871104;29;20363;-78
2023/09/19 02:04:39;;;;;;;12.05;2.15;;;13.70;99.90;;;;;;4882259;29;20144;-78
2023/09/19 02:07:08;;;;;;;15.40;2.22;;;13.60;99.90;;;;;;4885061;29;20135;-78
2023/09/19 02:09:35;;;;;;;12.43;2.15;;;13.70;99.90;;;;;;4882047;29;20060;-77
2023/09/19 02:12:04;;;;;;;12.48;2.00;;;13.70;99.90;;;;;;4882201;29;20494;-78
2023/09/19 02:14:30;;;;;;;11.32;2.00;;;13.70;99.90;;;;;;4880008;29;20139;-78
2023/09/19 02:16:56;;;;;;;12.10;1.85;;;13.60;99.90;;;;;;4866913;29;20345;-78
2023/09/19 02:19:22;;;;;;;18.13;1.92;;;13.70;99.90;;;;;;4871712;29;20033;-77
2023/09/19 02:21:48;;;;;;;13.10;1.80;;;13.60;99.90;;;;;;4869968;29;20437;-78
2023/09/19 02:24:15;;;;;;;11.20;1.77;;;13.60;99.90;;;;;;4881076;29;20047;-78
2023/09/19 02:26:41;;;;;;;13.45;2.10;;;13.60;99.90;;;;;;4866826;29;20024;-78
2023/09/19 02:29:06;;;;;;;10.82;1.83;;;13.50;99.90;;;;;;4877682;29;20109;-77
2023/09/19 02:31:32;;;;;;;16.40;2.10;;;13.50;99.90;;;;;;4884554;29;20024;-79
2023/09/19 02:33:57;;;;;;;8.02;1.58;;;13.50;99.90;;;;;;4882890;29;20124;-77
2023/09/19 02:36:23;;;;;;;18.73;2.13;;;13.40;99.90;;;;;;4881428;29;20032;-78
2023/09/19 02:38:49;;;;;;;12.63;1.58;;;13.40;99.90;;;;;;4871967;29;20691;-77
2023/09/19 02:41:15;;;;;;;11.02;2.13;;;13.30;99.90;;;;;;4880424;29;20070;-77
2023/09/19 02:43:42;;;;;;;17.45;2.25;;;13.30;99.90;;;;;;4884586;29;20341;-78
2023/09/19 02:46:08;;;;;;;10.27;1.80;;;13.30;99.90;;;;;;4881889;29;20590;-78
2023/09/19 02:48:35;;;;;;;16.67;2.20;;;13.30;99.90;;;;;;4882118;29;20032;-77
2023/09/19 02:51:01;;;;;;;10.90;2.00;;;13.30;99.90;;;;;;4871277;29;20432;-78
2023/09/19 02:53:27;;;;;;;9.68;2.13;;;13.30;99.90;;;;;;4877019;29;20093;-77
2023/09/19 02:55:53;;;;;;;11.10;1.98;;;13.40;99.90;;;;;;4886730;29;20093;-77
2023/09/19 02:58:19;;;;;;;10.20;2.10;;;13.30;99.90;;;;;;4883843;29;20048;-78
2023/09/19 03:00:49;;;;;;;12.07;2.30;;;13.40;99.90;;;;;;4877198;29;20164;-78
2023/09/19 03:03:18;;;;;;;17.35;2.17;;;13.40;99.90;;;;;;4883690;29;20024;-78
2023/09/19 03:05:47;;;;;;;12.07;2.30;;;13.40;99.90;;;;;;4885992;29;20043;-78
2023/09/19 03:08:16;;;;;;;11.38;1.85;;;13.50;99.90;;;;;;4885901;29;20020;-78
2023/09/19 03:10:42;;;;;;;13.25;2.00;;;13.50;99.90;;;;;;4884838;29;20037;-78
2023/09/19 03:13:09;;;;;;;17.08;2.20;;;13.50;99.90;;;;;;4882050;29;20582;-78
2023/09/19 03:15:38;;;;;;;13.23;2.03;;;13.50;99.90;;;;;;4886158;29;20131;-78
2023/09/19 03:18:04;;;;;;;17.83;2.08;;;13.60;99.90;;;;;;4881223;29;20136;-78
2023/09/19 03:20:30;;;;;;;14.98;2.30;;;13.60;99.90;;;;;;4885505;29;20033;-78
2023/09/19 03:22:57;;;;;;;14.40;2.22;;;13.60;99.90;;;;;;4887475;29;20400;-78
2023/09/19 03:25:22;;;;;;;16.83;3.08;;;13.70;99.90;;;;;;4888913;29;20107;-79
2023/09/19 03:27:48;;;;;;;10.55;2.20;;;13.70;99.90;;;;;;4886802;29;20155;-77
2023/09/19 03:30:14;;;;;;;13.95;1.83;;;13.70;99.90;;;;;;4888290;29;20028;-78
2023/09/19 03:32:47;;;;;;;17.45;2.40;;;13.70;99.90;;;;;;4888181;29;20040;-78
2023/09/19 03:35:14;;;;;;;11.82;2.13;;;13.70;99.90;;;;;;4889885;29;20518;-77
2023/09/19 03:37:43;;;;;;;12.63;1.90;;;13.70;99.90;;;;;;4886632;29;20720;-78
2023/09/19 03:40:10;;;;;;;8.88;1.40;;;13.70;99.90;;;;;;4887568;29;20083;-78
2023/09/19 03:42:39;;;;;;;11.57;1.80;;;13.70;99.90;;;;;;4868951;29;20078;-78
2023/09/19 03:45:05;;;;;;;13.88;1.90;;;13.70;99.90;;;;;;4883419;29;20047;-79
2023/09/19 03:47:31;;;;;;;9.55;1.63;;;13.70;99.90;;;;;;4882864;29;20123;-78
2023/09/19 03:49:56;;;;;;;10.57;1.70;;;13.70;99.90;;;;;;4884050;29;20136;-78
2023/09/19 03:52:22;;;;;;;15.65;1.80;;;13.70;99.90;;;;;;4871379;29;20043;-77
2023/09/19 03:54:47;;;;;;;13.00;2.00;;;13.70;99.90;;;;;;4868635;29;20109;-77
2023/09/19 03:57:15;;;;;;;11.13;1.65;;;13.70;99.90;;;;;;4882072;29;20043;-78
2023/09/19 03:59:42;;;;;;;15.50;1.98;;;13.80;99.90;;;;;;4883420;29;20036;-78
2023/09/19 04:02:13;;;;;;;13.82;1.85;;;13.90;99.90;;;;;;4880948;29;20072;-78
2023/09/19 04:04:38;;;;;;;12.80;2.30;;;13.90;99.90;;;;;;4888148;29;20398;-78
2023/09/19 04:07:04;;;;;;;14.38;1.75;;;14.00;99.90;;;;;;4884362;29;20040;-78
2023/09/19 04:09:30;;;;;;;9.85;1.90;;;14.20;99.90;;;;;;4886867;29;20040;-78
2023/09/19 04:11:55;;;;;;;15.65;1.95;;;14.20;99.90;;;;;;4889395;29;20036;-78
2023/09/19 04:14:21;;;;;;;11.90;2.17;;;14.40;99.90;;;;;;4885895;29;20048;-78
2023/09/19 04:16:47;;;;;;;12.02;2.05;;;14.40;99.90;;;;;;4886385;29;20119;-78
2023/09/19 04:19:12;;;;;;;15.00;2.25;;;14.50;99.90;;;;;;4888314;29;20044;-77
2023/09/19 04:21:38;;;;;;;13.65;2.40;;;14.60;99.90;;;;;;4883466;29;20384;-78
2023/09/19 04:24:04;;;;;;;10.27;1.85;;;14.60;99.90;;;;;;4885806;29;20048;-78
2023/09/19 04:26:29;;;;;;;12.85;1.38;;;14.70;99.90;;;;;;4883758;29;20020;-78
2023/09/19 04:28:56;;;;;;;12.05;1.70;;;14.90;99.90;;;;;;4886732;29;20407;-78
2023/09/19 04:31:22;;;;;;;8.10;1.38;;;15.10;99.90;;;;;;4885876;29;20131;-78
2023/09/19 04:33:47;;;;;;;8.50;1.40;;;15.20;99.90;;;;;;4888516;29;20053;-77
2023/09/19 04:36:13;;;;;;;11.05;1.40;;;15.20;99.90;;;;;;4886305;29;20041;-78
2023/09/19 04:38:39;;;;;;;15.40;2.03;;;15.20;99.90;;;;;;4883961;29;20040;-78
2023/09/19 04:41:05;;;;;;;11.35;1.42;;;15.20;99.90;;;;;;4886928;29;20399;-77
2023/09/19 04:43:31;;;;;;;21.02;2.05;;;15.30;99.90;;;;;;4886740;29;20039;-77
2023/09/19 04:45:56;;;;;;;9.48;1.23;;;15.40;99.90;;;;;;4882367;29;20467;-78
2023/09/19 04:48:26;;;;;;;12.98;1.90;;;15.40;99.90;;;;;;4881476;29;20043;-77
2023/09/19 04:50:51;;;;;;;10.85;1.35;;;15.50;99.90;;;;;;4884226;29;20444;-78
2023/09/19 04:53:20;;;;;;;14.10;1.50;;;15.60;99.90;;;;;;4886186;29;20111;-78
2023/09/19 04:55:49;;;;;;;12.25;1.45;;;15.60;99.90;;;;;;4885033;29;20110;-78
2023/09/19 04:58:15;;;;;;;13.68;1.50;;;15.70;99.90;;;;;;4885343;29;20092;-78
2023/09/19 05:00:40;;;;;;;9.60;1.73;;;15.70;99.90;;;;;;4885660;29;20135;-78
2023/09/19 05:03:06;;;;;;;15.63;1.73;;;15.80;99.90;;;;;;4886814;29;20032;-78
2023/09/19 05:05:32;;;;;;;11.55;1.73;;;15.90;99.90;;;;;;4886515;29;20204;-78
2023/09/19 05:07:59;;;;;;;10.32;1.52;;;15.90;99.90;;;;;;4883263;29;20055;-77
2023/09/19 05:10:24;;;;;;;18.00;1.70;;;16.00;99.90;;;;;;4886936;29;20273;-78
2023/09/19 05:12:53;;;;;;;11.55;1.45;;;16.00;99.90;;;;;;4882922;29;20244;-77
2023/09/19 05:15:19;;;;;;;16.08;1.70;;;16.10;99.90;;;;;;4880947;29;20052;-77
2023/09/19 05:17:50;;;;;;;13.73;1.85;;;16.20;99.90;;;;;;4882533;29;20041;-77
2023/09/19 05:20:15;;;;;;;13.43;1.42;;;16.20;99.90;;;;;;4885015;29;20079;-77
2023/09/19 05:22:42;;;;;;;11.10;1.80;;;16.40;99.90;;;;;;4879073;29;20086;-78
2023/09/19 05:25:09;;;;;;;11.95;1.60;;;16.40;99.90;;;;;;4880077;29;20127;-78
2023/09/19 05:27:35;;;;;;;11.10;1.80;;;16.20;99.90;;;;;;4883684;29;20046;-77
2023/09/19 05:30:01;;;;;;;11.60;1.50;;;16.00;99.90;;;;;;4886162;29;20032;-77
2023/09/19 05:32:26;;;;;;;12.95;1.52;;;15.80;99.90;;;;;;4886075;29;20043;-77
2023/09/19 05:34:53;;;;;;;13.57;1.27;;;15.70;99.90;;;;;;4886368;29;20031;-77
2023/09/19 05:37:19;;;;;;;9.30;1.27;;;15.50;99.90;;;;;;4884201;29;20387;-78
2023/09/19 05:39:45;;;;;;;11.18;1.38;;;15.40;99.90;;;;;;4882232;29;20036;-77
2023/09/19 05:42:10;;;;;;;6.50;1.10;;;15.40;99.90;;;;;;4882225;29;20517;-76
2023/09/19 05:44:36;;;;;;;14.50;1.92;;;15.40;99.90;;;;;;4883375;29;20036;-75
2023/09/19 05:47:03;;;;;;;11.48;1.27;;;15.30;99.90;;;;;;4885470;29;20114;-75
2023/09/19 05:49:28;;;;;;;5.57;1.10;;;15.20;99.90;;;;;;4882583;29;20045;-75
2023/09/19 05:51:56;;;;;;;12.20;1.25;;;15.20;99.90;;;;;;4883189;29;20036;-74
2023/09/19 05:54:22;;;;;;;12.07;1.63;;;15.10;99.90;;;;;;4884944;29;20032;-74
2023/09/19 05:56:48;;;;;;;8.27;1.40;;;15.10;99.90;;;;;;4883635;29;20036;-75
2023/09/19 05:59:15;;;;;;;12.77;1.30;;;15.10;99.90;;;;;;4884707;29;20066;-74
2023/09/19 06:01:42;;;;;;;8.10;1.25;;;15.10;99.90;;;;;;4883373;29;20037;-73
2023/09/19 06:04:08;;;;;;;7.68;1.45;;;15.10;99.90;;;;;;4878176;29;20059;-74
2023/09/19 06:06:38;;;;;;;15.00;1.50;;;15.10;99.90;;;;;;4883398;29;20064;-74
2023/09/19 06:09:09;;;;;;;12.95;1.63;;;15.10;99.90;;;;;;4610106;29;10000973;-74
2023/09/19 06:11:35;;;;;;;8.63;1.30;;;15.10;99.90;;;;;;4878515;29;20268;-74
2023/09/19 06:14:02;;;;;;;7.95;1.80;;;15.20;99.90;;;;;;4879672;29;20064;-74
2023/09/19 06:16:29;;;;;;;13.55;1.77;;;15.10;99.90;;;;;;4878527;29;20032;-74
2023/09/19 06:18:55;;;;;;;14.30;1.63;;;15.20;99.90;;;;;;4878132;29;20402;-74
2023/09/19 06:21:22;;;;;;;12.48;1.55;;;15.20;99.90;;;;;;4882690;29;20028;-74
2023/09/19 06:23:48;;;;;;;15.85;2.08;;;15.30;99.90;;;;;;4875357;29;20119;-74
2023/09/19 06:26:14;;;;;;;26.17;4.82;;;15.40;99.90;;;;;;4881150;29;20127;-74
2023/09/19 06:28:40;;;;;;;12.98;2.15;;;15.40;99.90;;;;;;4874227;29;20074;-74
2023/09/19 06:31:09;;;;;;;15.40;1.92;;;15.40;99.90;;;;;;4882185;29;20036;-75
2023/09/19 06:33:38;;;;;;;8.77;1.70;;;15.50;99.90;;;;;;4878878;29;20036;-74
2023/09/19 06:36:04;;;;;;;21.58;2.20;;;15.50;99.90;;;;;;4880479;29;20037;-73
2023/09/19 06:38:31;;;;;;;16.00;2.28;;;15.60;99.90;;;;;;4881060;29;20036;-73
2023/09/19 06:40:58;;;;;;;16.10;2.10;;;15.60;99.90;;;;;;4869165;29;20116;-77
2023/09/19 06:43:23;;;;;;;12.35;2.38;;;15.60;99.90;;;;;;4874559;29;20047;-73
2023/09/19 06:45:51;;;;;;;19.55;2.45;;;15.70;99.90;;;;;;4876655;29;20029;-73
2023/09/19 06:48:18;;;;;;;14.65;2.03;;;15.70;99.90;;;;;;4880855;29;20594;-73
2023/09/19 06:50:44;;;;;;;8.98;1.45;;;15.60;99.90;;;;;;4875692;29;20036;-74
2023/09/19 06:53:10;;;;;;;7.38;1.55;;;15.60;99.90;;;;;;4871559;29;20542;-77
2023/09/19 06:55:36;;;;;;;14.90;2.00;;;15.60;99.90;;;;;;4866441;29;20040;-75
2023/09/19 06:58:02;;;;;;;11.50;2.00;;;15.60;99.90;;;;;;4860119;29;20041;-72
2023/09/19 07:00:31;;;;;;;14.80;1.77;;;15.60;99.90;;;;;;4863875;29;20452;-73
2023/09/19 07:02:57;;;;;;;13.52;2.25;;;15.60;99.90;;;;;;4864318;29;20873;-74
2023/09/19 07:05:22;;;;;;;18.40;2.40;;;15.60;99.90;;;;;;4874234;29;20490;-73
2023/09/19 07:07:48;;;;;;;18.15;2.70;;;15.70;99.90;;;;;;4878643;29;20303;-79
2023/09/19 07:10:14;;;;;;;16.85;2.47;;;15.70;99.90;;;;;;4874188;29;20082;-78
2023/09/19 07:12:41;;;;;;;10.23;1.85;;;15.90;99.90;;;;;;4877251;29;20032;-75
2023/09/19 07:15:07;;;;;;;12.70;1.95;;;16.00;99.90;;;;;;4880264;29;20070;-75
2023/09/19 07:17:33;;;;;;;14.63;1.65;;;16.10;99.90;;;;;;4880935;29;20044;-75
2023/09/19 07:19:59;;;;;;;6.60;1.58;;;16.20;99.90;;;;;;4882718;29;20382;-74
2023/09/19 07:22:26;;;;;;;10.52;1.58;;;16.20;99.90;;;;;;4875556;29;20096;-74
2023/09/19 07:24:52;;;;;;;16.65;2.13;;;16.20;99.90;;;;;;4874814;29;20104;-78
2023/09/19 07:27:18;;;;;;;17.38;2.15;;;16.20;99.90;;;;;;4879359;29;20043;-75
2023/09/19 07:29:44;;;;;;;10.35;1.52;;;16.20;99.90;;;;;;4875271;29;20088;-75
2023/09/19 07:32:11;;;;;;;15.65;2.15;;;16.30;99.90;;;;;;4876868;29;20511;-80
2023/09/19 07:34:40;;;;;;;9.98;1.95;;;16.30;99.90;;;;;;4869459;29;20036;-78
2023/09/19 07:37:06;;;;;;;17.75;2.20;;;16.20;99.90;;;;;;4866110;29;20478;-75
2023/09/19 07:39:31;;;;;;;17.80;2.25;;;16.20;99.90;;;;;;4865665;29;20570;-75
2023/09/19 07:41:58;;;;;;;15.07;2.22;;;16.10;99.90;;;;;;4867808;29;20124;-79
2023/09/19 07:44:25;;;;;;;19.77;2.47;;;16.10;99.90;;;;;;4863836;29;20041;-74
2023/09/19 07:46:52;;;;;;;20.35;2.75;;;16.10;99.90;;;;;;4869538;29;20024;-73
2023/09/19 07:49:17;;;;;;;15.57;2.80;;;16.20;99.90;;;;;;4877307;29;20439;-73
2023/09/19 07:51:46;;;;;;;16.45;2.90;;;16.30;99.90;;;;;;4881903;29;20124;-74
2023/09/19 07:54:12;;;;;;;15.35;2.70;;;16.40;99.90;;;;;;4881035;29;20033;-75
2023/09/19 07:56:38;;;;;;;17.15;2.75;;;16.40;99.90;;;;;;4883243;29;20367;-73
2023/09/19 07:59:04;;;;;;;23.00;3.40;;;16.40;99.90;;;;;;4873157;29;20065;-74
2023/09/19 08:01:30;;;;;;;16.27;2.70;;;16.40;99.90;;;;;;4877469;29;20148;-79
2023/09/19 08:03:55;;;;;;;16.35;2.83;;;16.40;99.90;;;;;;4873974;29;20452;-79
2023/09/19 08:06:21;;;;;;;18.67;3.00;;;16.40;99.90;;;;;;4879004;29;20088;-74
2023/09/19 08:08:47;;;;;;;22.00;3.13;;;16.50;99.90;;;;;;4881566;29;20434;-74
2023/09/19 08:11:12;;;;;;;16.88;3.35;;;16.50;99.90;;;;;;4887774;29;20036;-74
2023/09/19 08:13:43;;;;;;;18.92;2.63;;;16.70;99.90;;;;;;4888705;23;20065;-81
2023/09/19 08:16:12;;;;;;;24.80;3.30;;;16.90;99.90;;;;;;4859229;29;20043;-81
2023/09/19 08:18:40;;;;;;;15.52;2.78;;;17.00;99.90;;;;;;4858127;29;20086;-82
2023/09/19 08:21:10;;;;;;;23.08;3.63;;;17.10;99.90;;;;;;4857838;29;20033;-82
2023/09/19 08:23:36;;;;;;;17.23;2.50;;;17.20;99.90;;;;;;4858318;29;20124;-82
2023/09/19 08:26:07;;;;;;;20.92;3.42;;;17.30;99.90;;;;;;4861796;29;20035;-82
2023/09/19 08:28:33;;;;;;;20.65;2.83;;;17.30;99.90;;;;;;4863463;23;20077;-81
2023/09/19 08:31:04;;;;;;;20.15;2.83;;;17.30;99.90;;;;;;4860646;29;20029;-80
2023/09/19 08:33:35;;;;;;;24.15;3.53;;;17.20;99.90;;;;;;4852100;29;20029;-79
2023/09/19 08:36:01;;;;;;;28.50;3.63;;;17.00;99.90;;;;;;4862909;29;20072;-79
2023/09/19 08:38:30;;;;;;;18.45;3.75;;;17.00;99.90;;;;;;4864871;29;20079;-80
2023/09/19 08:40:59;;;;;;;18.23;2.83;;;17.10;99.90;;;;;;4862420;29;20116;-79
2023/09/19 08:43:26;;;;;;;20.08;3.15;;;17.30;99.90;;;;;;4864611;29;20040;-78
2023/09/19 08:46:04;;;;;;;19.45;3.75;;;17.40;99.90;;;;;;4864723;29;20111;-79
2023/09/19 08:48:31;;;;;;;23.58;3.13;;;17.50;99.90;;;;;;4863755;29;20093;-81
2023/09/19 08:51:03;;;;;;;27.90;4.30;;;17.50;99.90;;;;;;4860501;29;20166;-82
2023/09/19 08:53:48;;;;;;;19.63;3.28;;;17.40;99.90;;;;;;4863789;29;20144;-81
2023/09/19 08:56:17;;;;;;;25.98;4.32;;;17.40;99.90;;;;;;4859474;29;20041;-81
2023/09/19 08:58:54;;;;;;;18.48;3.22;;;17.30;99.90;;;;;;4856322;29;20121;-79
2023/09/19 09:01:26;;;;;;;18.90;3.40;;;17.30;99.90;;;;;;4860880;29;20033;-84
2023/09/19 09:03:56;;;;;;;23.23;3.92;;;17.60;99.90;;;;;;4865276;29;20410;-82
2023/09/19 09:06:23;;;;;;;22.17;3.20;;;17.80;99.90;;;;;;4860426;29;20140;-81
2023/09/19 09:08:51;;;;;;;25.58;3.85;;;18.00;99.90;;;;;;4863611;29;20424;-82
2023/09/19 09:11:18;;;;;;;17.33;3.08;;;18.10;99.90;;;;;;4858821;29;20036;-83
2023/09/19 09:13:47;;;;;;;20.88;3.92;;;17.90;99.90;;;;;;4861969;29;20435;-84
2023/09/19 09:16:17;;;;;;;23.15;3.83;;;17.90;99.90;;;;;;4862913;29;20033;-83
2023/09/19 09:18:44;;;;;;;24.65;4.40;;;18.00;99.90;;;;;;4865052;29;20047;-81
2023/09/19 09:21:10;;;;;;;21.98;3.50;;;18.20;99.90;;;;;;4865727;29;20285;-88
2023/09/19 09:23:35;;;;;;;21.85;3.65;;;18.30;99.90;;;;;;4861893;29;20048;-81
2023/09/19 09:26:06;;;;;;;20.55;3.67;;;18.10;99.90;;;;;;4852788;29;20384;-83
2023/09/19 09:28:33;;;;;;;17.60;2.90;;;18.00;99.90;;;;;;4539687;29;9999673;-85
2023/09/19 09:31:00;;;;;;;21.48;3.30;;;18.00;99.90;;;;;;4862614;29;20108;-79
2023/09/19 09:33:27;;;;;;;22.15;3.72;;;18.00;99.90;;;;;;4866125;29;20467;-79
2023/09/19 09:35:56;;;;;;;22.20;3.78;;;18.10;99.90;;;;;;4868790;29;20431;-80
2023/09/19 09:38:31;;;;;;;19.10;3.88;;;18.30;99.90;;;;;;4868406;29;20052;-82
2023/09/19 09:41:01;;;;;;;22.52;4.28;;;18.60;99.90;;;;;;4880346;29;20061;-80
2023/09/19 09:43:28;;;;;;;21.70;3.58;;;18.60;99.90;;;;;;4867330;29;20033;-79
2023/09/19 09:51:57;;;;;;;28.67;4.68;;;18.50;99.90;;;;;;4847920;29;20044;-78
2023/09/19 09:54:27;;;;;;;25.75;5.15;;;18.70;99.90;;;;;;4855901;29;20033;-79
2023/09/19 09:56:58;;;;;;;23.73;4.57;;;18.80;99.90;;;;;;4856300;29;20029;-78
2023/09/19 09:59:46;;;;;;;30.40;4.20;;;18.70;99.90;;;;;;4851062;29;20045;-78
2023/09/19 10:02:13;;;;;;;25.42;4.07;;;18.70;99.90;;;;;;4853151;29;20067;-79
2023/09/19 10:04:51;;;;;;;24.00;4.72;;;18.80;99.90;;;;;;4853148;29;20030;-80
2023/09/19 10:07:49;;;;;;;18.08;4.35;;;18.90;99.90;;;;;;4852211;29;20039;-78
2023/09/19 10:10:28;;;;;;;25.10;4.57;;;18.90;99.90;;;;;;4857162;29;20436;-79
2023/09/19 10:13:02;;;;;;;22.55;3.85;;;18.90;99.90;;;;;;4847207;29;20060;-78
2023/09/19 10:15:32;;;;;;;20.33;4.30;;;18.90;99.90;;;;;;4855630;29;20040;-78
2023/09/19 10:18:08;;;;;;;23.52;4.90;;;19.00;99.90;;;;;;4856899;29;20092;-78
2023/09/19 10:20:38;;;;;;;21.83;4.28;;;18.90;99.90;;;;;;4860986;29;20490;-81
2023/09/19 10:23:12;;;;;;;24.23;4.57;;;18.90;99.90;;;;;;4852960;29;20236;-79
2023/09/19 10:25:39;;;;;;;24.30;4.32;;;18.70;99.90;;;;;;4851065;29;20103;-78
2023/09/19 10:28:10;;;;;;;28.58;4.75;;;18.50;99.90;;;;;;4852018;29;20069;-80
2023/09/19 10:30:43;;;;;;;26.40;4.30;;;18.50;99.90;;;;;;4852595;29;20032;-79
2023/09/19 10:33:09;;;;;;;24.50;4.57;;;18.60;99.90;;;;;;4856673;29;20045;-79
2023/09/19 10:35:40;;;;;;;28.13;4.55;;;18.60;99.90;;;;;;4869250;29;20113;-80
2023/09/19 10:38:06;;;;;;;26.98;4.45;;;18.60;99.90;;;;;;4854141;29;20048;-79
2023/09/19 10:40:34;;;;;;;25.10;4.53;;;18.60;99.90;;;;;;4859434;29;20611;-80
2023/09/19 10:43:05;;;;;;;26.40;4.70;;;18.50;99.90;;;;;;4863100;29;20073;-78
2023/09/19 10:45:35;;;;;;;24.10;4.78;;;18.40;99.90;;;;;;4855269;29;20087;-82
2023/09/19 10:48:05;;;;;;;23.52;4.30;;;18.30;99.90;;;;;;4866407;29;20665;-83
2023/09/19 10:50:35;;;;;;;31.20;4.60;;;18.30;99.90;;;;;;4863968;29;21330;-85
2023/09/19 10:53:04;;;;;;;29.33;4.57;;;18.20;99.90;;;;;;4864029;29;20685;-88
2023/09/19 10:55:32;;;;;;;22.88;4.53;;;18.20;99.90;;;;;;4865877;29;20025;-85
2023/09/19 10:58:00;;;;;;;19.38;4.35;;;18.20;99.90;;;;;;4863850;29;20306;-82
2023/09/19 11:00:26;;;;;;;18.17;3.75;;;18.20;99.90;;;;;;4863155;29;20129;-85
2023/09/19 11:03:19;;;;;;;23.33;4.65;;;18.20;99.90;;;;;;4861794;29;20360;-81
2023/09/19 11:06:10;;;;;;;26.27;4.35;;;18.30;99.90;;;;;;4861597;29;20033;-80
2023/09/19 11:08:57;;;;;;;30.73;4.53;;;18.40;99.90;;;;;;4862609;29;20040;-80
2023/09/19 11:11:39;;;;;;;33.17;5.80;;;18.60;99.90;;;;;;4188786;29;9999935;-79
2023/09/19 11:14:15;;;;;;;31.42;4.97;;;18.60;99.90;;;;;;4854698;29;20048;-79
2023/09/19 11:17:15;;;;;;;29.67;4.72;;;18.60;99.90;;;;;;4848168;29;20036;-79
2023/09/19 11:20:15;;;;;;;26.50;4.57;;;18.60;99.90;;;;;;4858156;29;20056;-79
2023/09/19 11:22:50;;;;;;;26.30;5.13;;;18.50;99.90;;;;;;4841677;29;20061;-79
2023/09/19 11:25:31;;;;;;;26.33;5.03;;;18.60;99.90;;;;;;4853948;29;20487;-79
2023/09/19 11:28:06;;;;;;;27.58;4.85;;;18.50;99.90;;;;;;4859704;29;20056;-78
2023/09/19 11:30:37;;;;;;;27.92;4.93;;;18.60;99.90;;;;;;4860853;29;20515;-78
2023/09/19 11:33:28;;;;;;;21.58;4.82;;;18.60;99.90;;;;;;4860160;29;20037;-79
2023/09/19 11:36:07;;;;;;;23.05;5.07;;;18.50;99.90;;;;;;4864641;29;20518;-78
2023/09/19 11:38:45;;;;;;;21.50;4.43;;;18.40;99.90;;;;;;4861850;29;20098;-79
2023/09/19 11:41:26;;;;;;;23.25;4.85;;;18.10;99.90;;;;;;4865521;29;20051;-81
2023/09/19 11:43:56;;;;;;;28.08;4.78;;;18.00;99.90;;;;;;4863423;29;20642;-79
2023/09/19 11:46:22;;;;;;;24.17;5.10;;;17.90;99.90;;;;;;4864940;29;20333;-77
2023/09/19 11:48:49;;;;;;;22.80;5.32;;;17.80;99.90;;;;;;4858095;29;20076;-78
2023/09/19 11:51:23;;;;;;;24.63;4.70;;;17.70;99.90;;;;;;4864265;29;20096;-80
2023/09/19 11:53:51;;;;;;;25.35;5.00;;;17.70;99.90;;;;;;4864580;29;20032;-80
2023/09/19 11:56:21;;;;;;;26.80;4.78;;;17.70;99.90;;;;;;4864164;29;20507;-79
2023/09/19 11:58:49;;;;;;;36.40;5.05;;;17.80;99.90;;;;;;4858458;29;20097;-79
2023/09/19 12:01:22;;;;;;;24.13;4.75;;;18.00;99.90;;;;;;4862313;29;20045;-78
2023/09/19 12:03:53;;;;;;;33.25;6.03;;;18.10;99.90;;;;;;4865346;29;20033;-79
2023/09/19 12:06:21;;;;;;;23.10;5.50;;;18.20;99.90;;;;;;4857582;29;20129;-78
2023/09/19 12:08:48;;;;;;;29.73;5.90;;;18.30;99.90;;;;;;4863666;29;20110;-79
2023/09/19 12:11:15;;;;;;;24.60;5.35;;;18.50;99.90;;;;;;4858606;29;20033;-79
2023/09/19 12:13:48;;;;;;;34.22;6.03;;;18.70;99.90;;;;;;4856594;29;20049;-79
2023/09/19 12:16:21;;;;;;;26.23;5.47;;;18.70;99.90;;;;;;4846968;29;20032;-78
2023/09/19 12:18:50;;;;;;;23.77;4.80;;;18.80;99.90;;;;;;4844381;29;20507;-81
2023/09/19 12:21:32;;;;;;;26.33;4.97;;;18.80;99.90;;;;;;4846138;29;20033;-78
2023/09/19 12:24:18;;;;;;;28.67;4.93;;;18.70;99.90;;;;;;4848529;29;20058;-78
2023/09/19 12:26:47;;;;;;;29.63;5.78;;;18.70;99.90;;;;;;4846289;29;20045;-82
2023/09/19 12:29:20;;;;;;;28.42;5.63;;;18.80;99.90;;;;;;4848026;29;20057;-81
2023/09/19 12:31:55;;;;;;;37.47;5.93;;;18.70;99.90;;;;;;4857326;29;20479;-79
2023/09/19 12:34:28;;;;;;;27.77;5.93;;;18.70;99.90;;;;;;4868957;29;20092;-80
2023/09/19 12:37:14;;;;;;;27.58;5.93;;;18.70;99.90;;;;;;4854259;29;20124;-80
2023/09/19 12:39:42;;;;;;;25.42;5.15;;;18.90;99.90;;;;;;4866276;29;20502;-80
2023/09/19 12:42:09;;;;;;;22.48;5.10;;;18.90;99.90;;;;;;4865922;29;20033;-79
2023/09/19 12:44:38;;;;;;;27.42;5.35;;;18.70;99.90;;;;;;4860243;29;20116;-79
2023/09/19 12:47:17;;;;;;;29.52;5.45;;;18.60;99.90;;;;;;4862020;29;20439;-79
2023/09/19 12:50:06;;;;;;;31.60;5.85;;;18.50;99.90;;;;;;4865318;29;20064;-79
2023/09/19 12:52:39;;;;;;;26.58;5.60;;;18.30;99.90;;;;;;4868357;29;20037;-78
2023/09/19 12:55:06;;;;;;;26.98;5.85;;;18.30;99.90;;;;;;4868104;29;20083;-80